sensor_id;sensor_type;location;lat;lon;timestamp;temperature;humidity
78619;DHT22;67941;52.506;5.470;2023-03-01T00:00:14;0.60;68.40
78619;DHT22;67941;52.506;5.470;2023-03-01T00:02:42;0.60;68.40
78619;DHT22;67941;52.506;5.470;2023-03-01T00:05:11;0.60;68.40
78619;DHT22;67941;52.506;5.470;2023-03-01T00:07:40;0.60;68.40
78619;DHT22;67941;52.506;5.470;2023-03-01T00:10:11;0.60;68.40
78619;DHT22;67941;52.506;5.470;2023-03-01T00:12:39;0.60;68.50
78619;DHT22;67941;52.506;5.470;2023-03-01T00:15:08;0.50;68.50
78619;DHT22;67941;52.506;5.470;2023-03-01T00:17:40;0.50;68.50
78619;DHT22;67941;52.506;5.470;2023-03-01T00:20:10;0.40;68.40
78619;DHT22;67941;52.506;5.470;2023-03-01T00:22:40;0.40;68.50
78619;DHT22;67941;52.506;5.470;2023-03-01T00:25:09;0.40;68.50
78619;DHT22;67941;52.506;5.470;2023-03-01T00:27:38;0.40;68.60
78619;DHT22;67941;52.506;5.470;2023-03-01T00:30:08;0.40;68.50
78619;DHT22;67941;52.506;5.470;2023-03-01T00:32:40;0.30;68.60
78619;DHT22;67941;52.506;5.470;2023-03-01T00:35:09;0.30;68.60
78619;DHT22;67941;52.506;5.470;2023-03-01T00:37:38;0.20;68.50
78619;DHT22;67941;52.506;5.470;2023-03-01T00:40:08;0.20;68.60
78619;DHT22;67941;52.506;5.470;2023-03-01T00:42:37;0.10;68.60
78619;DHT22;67941;52.506;5.470;2023-03-01T00:45:08;0.00;68.60
78619;DHT22;67941;52.506;5.470;2023-03-01T00:47:37;0.00;68.70
78619;DHT22;67941;52.506;5.470;2023-03-01T00:50:10;0.00;68.60
78619;DHT22;67941;52.506;5.470;2023-03-01T00:52:39;0.00;68.70
78619;DHT22;67941;52.506;5.470;2023-03-01T00:55:08;0.00;68.70
78619;DHT22;67941;52.506;5.470;2023-03-01T00:57:38;-0.10;68.60
78619;DHT22;67941;52.506;5.470;2023-03-01T01:00:08;-0.10;68.70
78619;DHT22;67941;52.506;5.470;2023-03-01T01:02:38;-0.10;68.70
78619;DHT22;67941;52.506;5.470;2023-03-01T01:05:10;-0.20;68.70
78619;DHT22;67941;52.506;5.470;2023-03-01T01:07:39;-0.20;68.70
78619;DHT22;67941;52.506;5.470;2023-03-01T01:10:09;-0.30;68.70
78619;DHT22;67941;52.506;5.470;2023-03-01T01:12:38;-0.40;68.80
78619;DHT22;67941;52.506;5.470;2023-03-01T01:15:08;-0.40;68.80
78619;DHT22;67941;52.506;5.470;2023-03-01T01:17:38;-0.50;68.70
78619;DHT22;67941;52.506;5.470;2023-03-01T01:20:11;-0.50;68.90
78619;DHT22;67941;52.506;5.470;2023-03-01T01:22:40;-0.50;68.90
78619;DHT22;67941;52.506;5.470;2023-03-01T01:25:10;-0.50;68.90
78619;DHT22;67941;52.506;5.470;2023-03-01T01:27:39;-0.50;68.90
78619;DHT22;67941;52.506;5.470;2023-03-01T01:30:09;-0.60;68.80
78619;DHT22;67941;52.506;5.470;2023-03-01T01:32:39;-0.60;68.90
78619;DHT22;67941;52.506;5.470;2023-03-01T01:35:10;-0.60;68.90
78619;DHT22;67941;52.506;5.470;2023-03-01T01:37:39;-0.60;68.80
78619;DHT22;67941;52.506;5.470;2023-03-01T01:40:10;-0.60;68.80
78619;DHT22;67941;52.506;5.470;2023-03-01T01:42:39;-0.60;68.80
78619;DHT22;67941;52.506;5.470;2023-03-01T01:45:27;-0.60;68.80
78619;DHT22;67941;52.506;5.470;2023-03-01T01:48:00;-0.60;68.80
78619;DHT22;67941;52.506;5.470;2023-03-01T01:50:34;-0.60;68.70
78619;DHT22;67941;52.506;5.470;2023-03-01T01:53:10;-0.70;68.70
78619;DHT22;67941;52.506;5.470;2023-03-01T01:55:42;-0.70;68.80
78619;DHT22;67941;52.506;5.470;2023-03-01T01:58:16;-0.70;68.80
78619;DHT22;67941;52.506;5.470;2023-03-01T02:00:47;-0.70;68.80
78619;DHT22;67941;52.506;5.470;2023-03-01T02:03:20;-0.70;68.90
78619;DHT22;67941;52.506;5.470;2023-03-01T02:05:57;-0.70;68.80
78619;DHT22;67941;52.506;5.470;2023-03-01T02:08:29;-0.80;68.80
78619;DHT22;67941;52.506;5.470;2023-03-01T02:10:59;-0.80;68.90
78619;DHT22;67941;52.506;5.470;2023-03-01T02:13:31;-0.80;68.90
78619;DHT22;67941;52.506;5.470;2023-03-01T02:16:04;-0.90;68.90
78619;DHT22;67941;52.506;5.470;2023-03-01T02:18:34;-0.90;68.90
78619;DHT22;67941;52.506;5.470;2023-03-01T02:21:14;-1.00;68.90
78619;DHT22;67941;52.506;5.470;2023-03-01T02:23:46;-1.00;69.00
78619;DHT22;67941;52.506;5.470;2023-03-01T02:26:20;-1.00;69.00
78619;DHT22;67941;52.506;5.470;2023-03-01T02:28:54;-1.00;69.10
78619;DHT22;67941;52.506;5.470;2023-03-01T02:31:23;-0.90;69.10
78619;DHT22;67941;52.506;5.470;2023-03-01T02:34:05;-0.90;69.00
78619;DHT22;67941;52.506;5.470;2023-03-01T02:36:37;-0.90;69.00
78619;DHT22;67941;52.506;5.470;2023-03-01T02:39:10;-0.90;69.00
78619;DHT22;67941;52.506;5.470;2023-03-01T02:41:44;-0.80;69.00
78619;DHT22;67941;52.506;5.470;2023-03-01T02:44:16;-0.70;69.00
78619;DHT22;67941;52.506;5.470;2023-03-01T02:46:47;-0.70;69.00
78619;DHT22;67941;52.506;5.470;2023-03-01T02:49:22;-0.70;69.00
78619;DHT22;67941;52.506;5.470;2023-03-01T02:55:01;-0.60;68.90
78619;DHT22;67941;52.506;5.470;2023-03-01T02:57:32;-0.60;68.80
78619;DHT22;67941;52.506;5.470;2023-03-01T03:00:07;-0.70;68.90
78619;DHT22;67941;52.506;5.470;2023-03-01T03:02:37;-0.70;68.90
78619;DHT22;67941;52.506;5.470;2023-03-01T03:05:16;-0.70;68.90
78619;DHT22;67941;52.506;5.470;2023-03-01T03:07:47;-0.80;69.00
78619;DHT22;67941;52.506;5.470;2023-03-01T03:10:19;-0.90;69.10
78619;DHT22;67941;52.506;5.470;2023-03-01T03:12:49;-0.90;69.10
78619;DHT22;67941;52.506;5.470;2023-03-01T03:15:22;-1.00;69.20
78619;DHT22;67941;52.506;5.470;2023-03-01T03:17:54;-1.00;69.20
78619;DHT22;67941;52.506;5.470;2023-03-01T03:20:25;-1.00;69.30
78619;DHT22;67941;52.506;5.470;2023-03-01T03:22:56;-1.00;69.30
78619;DHT22;67941;52.506;5.470;2023-03-01T03:25:27;-1.00;69.20
78619;DHT22;67941;52.506;5.470;2023-03-01T03:27:57;-1.00;69.20
78619;DHT22;67941;52.506;5.470;2023-03-01T03:30:30;-1.00;69.20
78619;DHT22;67941;52.506;5.470;2023-03-01T03:33:00;-1.00;69.30
78619;DHT22;67941;52.506;5.470;2023-03-01T03:35:31;-1.00;69.20
78619;DHT22;67941;52.506;5.470;2023-03-01T03:38:04;-1.00;69.20
78619;DHT22;67941;52.506;5.470;2023-03-01T03:40:43;-1.10;69.10
78619;DHT22;67941;52.506;5.470;2023-03-01T03:43:14;-1.10;69.20
78619;DHT22;67941;52.506;5.470;2023-03-01T03:45:47;-1.10;69.20
78619;DHT22;67941;52.506;5.470;2023-03-01T03:48:17;-1.10;69.30
78619;DHT22;67941;52.506;5.470;2023-03-01T03:50:49;-1.10;69.30
78619;DHT22;67941;52.506;5.470;2023-03-01T03:53:18;-1.00;69.30
78619;DHT22;67941;52.506;5.470;2023-03-01T03:55:48;-1.00;69.30
78619;DHT22;67941;52.506;5.470;2023-03-01T03:58:19;-1.00;69.20
78619;DHT22;67941;52.506;5.470;2023-03-01T04:00:53;-0.90;69.20
78619;DHT22;67941;52.506;5.470;2023-03-01T04:03:24;-1.00;69.20
78619;DHT22;67941;52.506;5.470;2023-03-01T04:05:53;-1.00;69.20
78619;DHT22;67941;52.506;5.470;2023-03-01T04:08:25;-1.00;69.20
78619;DHT22;67941;52.506;5.470;2023-03-01T04:10:58;-1.00;69.20
78619;DHT22;67941;52.506;5.470;2023-03-01T04:13:48;-1.10;69.20
78619;DHT22;67941;52.506;5.470;2023-03-01T04:16:19;-1.10;69.20
78619;DHT22;67941;52.506;5.470;2023-03-01T04:18:49;-1.10;69.30
78619;DHT22;67941;52.506;5.470;2023-03-01T04:21:19;-1.10;69.40
78619;DHT22;67941;52.506;5.470;2023-03-01T04:23:48;-1.20;69.50
78619;DHT22;67941;52.506;5.470;2023-03-01T04:26:18;-1.10;69.60
78619;DHT22;67941;52.506;5.470;2023-03-01T04:28:48;-1.10;69.60
78619;DHT22;67941;52.506;5.470;2023-03-01T04:31:19;-1.10;69.50
78619;DHT22;67941;52.506;5.470;2023-03-01T04:33:51;-1.10;69.50
78619;DHT22;67941;52.506;5.470;2023-03-01T04:36:21;-1.10;69.40
78619;DHT22;67941;52.506;5.470;2023-03-01T04:38:51;-1.10;69.40
78619;DHT22;67941;52.506;5.470;2023-03-01T04:41:21;-1.10;69.40
78619;DHT22;67941;52.506;5.470;2023-03-01T04:43:51;-1.10;69.40
78619;DHT22;67941;52.506;5.470;2023-03-01T04:46:22;-1.10;69.50
78619;DHT22;67941;52.506;5.470;2023-03-01T04:48:51;-1.10;69.50
78619;DHT22;67941;52.506;5.470;2023-03-01T04:51:20;-1.10;69.60
78619;DHT22;67941;52.506;5.470;2023-03-01T04:53:49;-1.10;69.60
78619;DHT22;67941;52.506;5.470;2023-03-01T04:56:18;-1.10;69.60
78619;DHT22;67941;52.506;5.470;2023-03-01T04:58:49;-1.20;69.50
78619;DHT22;67941;52.506;5.470;2023-03-01T05:01:19;-1.20;69.60
78619;DHT22;67941;52.506;5.470;2023-03-01T05:03:51;-1.20;69.50
78619;DHT22;67941;52.506;5.470;2023-03-01T05:06:20;-1.30;69.60
78619;DHT22;67941;52.506;5.470;2023-03-01T05:08:49;-1.30;69.60
78619;DHT22;67941;52.506;5.470;2023-03-01T05:11:18;-1.30;69.60
78619;DHT22;67941;52.506;5.470;2023-03-01T05:13:47;-1.40;69.60
78619;DHT22;67941;52.506;5.470;2023-03-01T05:16:20;-1.40;69.70
78619;DHT22;67941;52.506;5.470;2023-03-01T05:18:52;-1.50;69.70
78619;DHT22;67941;52.506;5.470;2023-03-01T05:21:22;-1.50;69.70
78619;DHT22;67941;52.506;5.470;2023-03-01T05:23:51;-1.50;69.70
78619;DHT22;67941;52.506;5.470;2023-03-01T05:26:20;-1.60;69.70
78619;DHT22;67941;52.506;5.470;2023-03-01T05:28:54;-1.60;69.60
78619;DHT22;67941;52.506;5.470;2023-03-01T05:31:25;-1.70;69.70
78619;DHT22;67941;52.506;5.470;2023-03-01T05:33:56;-1.70;69.70
78619;DHT22;67941;52.506;5.470;2023-03-01T05:36:25;-1.70;69.80
78619;DHT22;67941;52.506;5.470;2023-03-01T05:38:54;-1.70;69.90
78619;DHT22;67941;52.506;5.470;2023-03-01T05:41:23;-1.70;69.80
78619;DHT22;67941;52.506;5.470;2023-03-01T05:43:52;-1.60;69.80
78619;DHT22;67941;52.506;5.470;2023-03-01T05:46:20;-1.60;69.80
78619;DHT22;67941;52.506;5.470;2023-03-01T05:48:50;-1.60;69.80
78619;DHT22;67941;52.506;5.470;2023-03-01T05:51:21;-1.50;69.90
78619;DHT22;67941;52.506;5.470;2023-03-01T05:53:50;-1.50;69.90
78619;DHT22;67941;52.506;5.470;2023-03-01T05:56:19;-1.30;69.90
78619;DHT22;67941;52.506;5.470;2023-03-01T05:58:48;-1.20;69.90
78619;DHT22;67941;52.506;5.470;2023-03-01T06:01:17;-1.10;69.90
78619;DHT22;67941;52.506;5.470;2023-03-01T06:03:46;-0.90;69.90
78619;DHT22;67941;52.506;5.470;2023-03-01T06:06:15;-0.70;69.70
78619;DHT22;67941;52.506;5.470;2023-03-01T06:08:46;-0.70;69.70
78619;DHT22;67941;52.506;5.470;2023-03-01T06:11:15;-0.60;69.60
78619;DHT22;67941;52.506;5.470;2023-03-01T06:13:44;-0.50;69.60
78619;DHT22;67941;52.506;5.470;2023-03-01T06:16:14;-0.40;69.60
78619;DHT22;67941;52.506;5.470;2023-03-01T06:18:43;-0.40;69.70
78619;DHT22;67941;52.506;5.470;2023-03-01T06:21:12;-0.30;69.70
78619;DHT22;67941;52.506;5.470;2023-03-01T06:23:40;-0.30;69.70
78619;DHT22;67941;52.506;5.470;2023-03-01T06:26:12;-0.20;69.70
78619;DHT22;67941;52.506;5.470;2023-03-01T06:28:41;-0.20;69.80
78619;DHT22;67941;52.506;5.470;2023-03-01T06:31:11;-0.20;69.80
78619;DHT22;67941;52.506;5.470;2023-03-01T06:33:40;-0.10;69.80
78619;DHT22;67941;52.506;5.470;2023-03-01T06:36:10;-0.10;69.80
78619;DHT22;67941;52.506;5.470;2023-03-01T06:38:39;-0.10;69.80
78619;DHT22;67941;52.506;5.470;2023-03-01T06:41:09;-0.10;69.90
78619;DHT22;67941;52.506;5.470;2023-03-01T06:43:40;0.00;69.80
78619;DHT22;67941;52.506;5.470;2023-03-01T06:46:09;0.00;69.90
78619;DHT22;67941;52.506;5.470;2023-03-01T06:48:38;0.00;69.90
78619;DHT22;67941;52.506;5.470;2023-03-01T06:51:06;0.00;69.80
78619;DHT22;67941;52.506;5.470;2023-03-01T06:53:35;0.00;69.80
78619;DHT22;67941;52.506;5.470;2023-03-01T06:56:04;-0.10;69.80
78619;DHT22;67941;52.506;5.470;2023-03-01T06:58:33;-0.10;69.90
78619;DHT22;67941;52.506;5.470;2023-03-01T07:01:08;-0.10;69.90
78619;DHT22;67941;52.506;5.470;2023-03-01T07:03:37;-0.20;69.90
78619;DHT22;67941;52.506;5.470;2023-03-01T07:06:06;-0.20;69.90
78619;DHT22;67941;52.506;5.470;2023-03-01T07:08:35;-0.30;70.00
78619;DHT22;67941;52.506;5.470;2023-03-01T07:11:04;-0.30;69.90
78619;DHT22;67941;52.506;5.470;2023-03-01T07:13:34;-0.30;70.00
78619;DHT22;67941;52.506;5.470;2023-03-01T07:16:03;-0.40;70.10
78619;DHT22;67941;52.506;5.470;2023-03-01T07:18:34;-0.40;70.00
78619;DHT22;67941;52.506;5.470;2023-03-01T07:21:07;-0.50;70.00
78619;DHT22;67941;52.506;5.470;2023-03-01T07:23:36;-0.50;70.00
78619;DHT22;67941;52.506;5.470;2023-03-01T07:26:05;-0.60;70.10
78619;DHT22;67941;52.506;5.470;2023-03-01T07:28:34;-0.70;70.00
78619;DHT22;67941;52.506;5.470;2023-03-01T07:31:05;-0.70;70.10
78619;DHT22;67941;52.506;5.470;2023-03-01T07:33:37;-0.70;70.10
78619;DHT22;67941;52.506;5.470;2023-03-01T07:36:07;-0.70;70.10
78619;DHT22;67941;52.506;5.470;2023-03-01T07:38:36;-0.70;70.10
78619;DHT22;67941;52.506;5.470;2023-03-01T07:41:05;-0.70;70.20
78619;DHT22;67941;52.506;5.470;2023-03-01T07:43:34;-0.70;70.20
78619;DHT22;67941;52.506;5.470;2023-03-01T07:46:04;-0.70;70.20
78619;DHT22;67941;52.506;5.470;2023-03-01T07:48:33;-0.70;70.10
78619;DHT22;67941;52.506;5.470;2023-03-01T07:51:05;-0.70;70.10
78619;DHT22;67941;52.506;5.470;2023-03-01T07:53:35;-0.60;70.10
78619;DHT22;67941;52.506;5.470;2023-03-01T07:56:05;-0.60;70.10
78619;DHT22;67941;52.506;5.470;2023-03-01T07:58:35;-0.60;70.10
78619;DHT22;67941;52.506;5.470;2023-03-01T08:01:05;-0.50;70.10
78619;DHT22;67941;52.506;5.470;2023-03-01T08:03:34;-0.50;70.00
78619;DHT22;67941;52.506;5.470;2023-03-01T08:06:08;-0.50;70.00
78619;DHT22;67941;52.506;5.470;2023-03-01T08:08:37;-0.40;70.00
78619;DHT22;67941;52.506;5.470;2023-03-01T08:11:07;-0.40;70.10
78619;DHT22;67941;52.506;5.470;2023-03-01T08:13:36;-0.30;70.10
78619;DHT22;67941;52.506;5.470;2023-03-01T08:16:07;-0.30;70.10
78619;DHT22;67941;52.506;5.470;2023-03-01T08:18:36;-0.20;70.00
78619;DHT22;67941;52.506;5.470;2023-03-01T08:21:10;-0.20;70.00
78619;DHT22;67941;52.506;5.470;2023-03-01T08:23:39;-0.10;70.10
78619;DHT22;67941;52.506;5.470;2023-03-01T08:26:09;-0.10;70.10
78619;DHT22;67941;52.506;5.470;2023-03-01T08:28:39;-0.10;70.10
78619;DHT22;67941;52.506;5.470;2023-03-01T08:31:17;0.00;70.10
78619;DHT22;67941;52.506;5.470;2023-03-01T08:33:46;0.00;70.10
78619;DHT22;67941;52.506;5.470;2023-03-01T08:36:24;0.10;70.10
78619;DHT22;67941;52.506;5.470;2023-03-01T08:38:54;0.20;70.10
78619;DHT22;67941;52.506;5.470;2023-03-01T08:41:23;0.20;70.10
78619;DHT22;67941;52.506;5.470;2023-03-01T08:43:52;0.30;70.10
78619;DHT22;67941;52.506;5.470;2023-03-01T08:46:25;0.40;70.10
78619;DHT22;67941;52.506;5.470;2023-03-01T08:48:54;0.50;70.10
78619;DHT22;67941;52.506;5.470;2023-03-01T08:51:26;0.60;70.10
78619;DHT22;67941;52.506;5.470;2023-03-01T08:53:55;0.60;70.10
78619;DHT22;67941;52.506;5.470;2023-03-01T08:56:24;0.60;70.00
78619;DHT22;67941;52.506;5.470;2023-03-01T08:58:52;0.80;70.00
78619;DHT22;67941;52.506;5.470;2023-03-01T09:01:21;0.80;70.10
78619;DHT22;67941;52.506;5.470;2023-03-01T09:03:50;0.80;70.10
78619;DHT22;67941;52.506;5.470;2023-03-01T09:06:19;0.90;70.10
78619;DHT22;67941;52.506;5.470;2023-03-01T09:08:51;1.00;70.10
78619;DHT22;67941;52.506;5.470;2023-03-01T09:11:21;1.00;70.00
78619;DHT22;67941;52.506;5.470;2023-03-01T09:13:50;1.10;70.00
78619;DHT22;67941;52.506;5.470;2023-03-01T09:16:20;1.10;70.10
78619;DHT22;67941;52.506;5.470;2023-03-01T09:18:50;1.20;70.20
78619;DHT22;67941;52.506;5.470;2023-03-01T09:21:21;1.30;70.20
78619;DHT22;67941;52.506;5.470;2023-03-01T09:23:53;1.40;70.20
78619;DHT22;67941;52.506;5.470;2023-03-01T09:26:22;1.50;70.20
78619;DHT22;67941;52.506;5.470;2023-03-01T09:28:53;1.50;70.20
78619;DHT22;67941;52.506;5.470;2023-03-01T09:31:24;1.60;70.30
78619;DHT22;67941;52.506;5.470;2023-03-01T09:33:53;1.70;70.20
78619;DHT22;67941;52.506;5.470;2023-03-01T09:36:24;1.70;70.20
78619;DHT22;67941;52.506;5.470;2023-03-01T09:38:57;1.80;70.20
78619;DHT22;67941;52.506;5.470;2023-03-01T09:41:45;1.80;70.20
78619;DHT22;67941;52.506;5.470;2023-03-01T09:44:27;1.90;70.20
78619;DHT22;67941;52.506;5.470;2023-03-01T09:46:58;1.90;70.20
78619;DHT22;67941;52.506;5.470;2023-03-01T09:49:29;1.90;70.30
78619;DHT22;67941;52.506;5.470;2023-03-01T09:52:03;2.00;70.30
78619;DHT22;67941;52.506;5.470;2023-03-01T09:54:38;2.00;70.30
78619;DHT22;67941;52.506;5.470;2023-03-01T09:57:17;2.10;70.30
78619;DHT22;67941;52.506;5.470;2023-03-01T10:00:00;2.10;70.30
78619;DHT22;67941;52.506;5.470;2023-03-01T10:02:38;2.20;70.30
78619;DHT22;67941;52.506;5.470;2023-03-01T10:05:21;2.30;70.30
78619;DHT22;67941;52.506;5.470;2023-03-01T10:08:02;2.30;70.20
78619;DHT22;67941;52.506;5.470;2023-03-01T10:10:39;2.40;70.20
78619;DHT22;67941;52.506;5.470;2023-03-01T10:13:14;2.50;70.10
78619;DHT22;67941;52.506;5.470;2023-03-01T10:15:50;2.50;70.20
78619;DHT22;67941;52.506;5.470;2023-03-01T10:18:23;2.50;70.10
78619;DHT22;67941;52.506;5.470;2023-03-01T10:20:54;2.50;70.20
78619;DHT22;67941;52.506;5.470;2023-03-01T10:23:24;2.60;70.10
78619;DHT22;67941;52.506;5.470;2023-03-01T10:29:03;2.80;70.00
78619;DHT22;67941;52.506;5.470;2023-03-01T10:31:36;2.80;69.90
78619;DHT22;67941;52.506;5.470;2023-03-01T10:34:14;2.90;69.90
78619;DHT22;67941;52.506;5.470;2023-03-01T10:36:45;2.90;69.80
78619;DHT22;67941;52.506;5.470;2023-03-01T10:39:18;3.00;69.80
78619;DHT22;67941;52.506;5.470;2023-03-01T10:42:01;3.00;69.80
78619;DHT22;67941;52.506;5.470;2023-03-01T10:44:44;3.00;69.80
78619;DHT22;67941;52.506;5.470;2023-03-01T10:47:19;3.10;69.70
78619;DHT22;67941;52.506;5.470;2023-03-01T10:50:17;3.20;69.70
78619;DHT22;67941;52.506;5.470;2023-03-01T10:52:57;3.30;69.60
78619;DHT22;67941;52.506;5.470;2023-03-01T10:55:31;3.30;69.50
78619;DHT22;67941;52.506;5.470;2023-03-01T10:58:20;3.30;69.40
78619;DHT22;67941;52.506;5.470;2023-03-01T11:00:51;3.40;69.40
78619;DHT22;67941;52.506;5.470;2023-03-01T11:03:23;3.50;69.40
78619;DHT22;67941;52.506;5.470;2023-03-01T11:06:05;3.50;69.40
78619;DHT22;67941;52.506;5.470;2023-03-01T11:08:42;3.50;69.40
78619;DHT22;67941;52.506;5.470;2023-03-01T11:14:16;3.60;69.30
78619;DHT22;67941;52.506;5.470;2023-03-01T11:16:48;3.70;69.20
78619;DHT22;67941;52.506;5.470;2023-03-01T11:19:19;3.80;69.20
78619;DHT22;67941;52.506;5.470;2023-03-01T11:21:59;3.90;69.10
78619;DHT22;67941;52.506;5.470;2023-03-01T11:24:34;3.90;69.00
78619;DHT22;67941;52.506;5.470;2023-03-01T11:27:18;3.90;69.00
78619;DHT22;67941;52.506;5.470;2023-03-01T11:29:54;4.00;68.70
78619;DHT22;67941;52.506;5.470;2023-03-01T11:32:27;4.10;68.60
78619;DHT22;67941;52.506;5.470;2023-03-01T11:34:59;4.10;68.50
78619;DHT22;67941;52.506;5.470;2023-03-01T11:37:35;4.20;68.40
78619;DHT22;67941;52.506;5.470;2023-03-01T11:40:13;4.20;68.30
78619;DHT22;67941;52.506;5.470;2023-03-01T11:42:55;4.20;68.20
78619;DHT22;67941;52.506;5.470;2023-03-01T11:45:38;4.30;68.20
78619;DHT22;67941;52.506;5.470;2023-03-01T11:51:13;4.40;68.00
78619;DHT22;67941;52.506;5.470;2023-03-01T11:53:54;4.50;67.90
78619;DHT22;67941;52.506;5.470;2023-03-01T11:56:31;4.50;67.80
78619;DHT22;67941;52.506;5.470;2023-03-01T12:02:36;4.70;67.50
78619;DHT22;67941;52.506;5.470;2023-03-01T12:05:26;4.70;67.50
78619;DHT22;67941;52.506;5.470;2023-03-01T12:08:08;4.70;67.40
78619;DHT22;67941;52.506;5.470;2023-03-01T12:10:46;4.70;67.20
78619;DHT22;67941;52.506;5.470;2023-03-01T12:13:27;4.80;67.20
78619;DHT22;67941;52.506;5.470;2023-03-01T12:16:17;4.90;67.10
78619;DHT22;67941;52.506;5.470;2023-03-01T12:19:24;5.00;67.00
78619;DHT22;67941;52.506;5.470;2023-03-01T12:22:08;5.00;66.90
78619;DHT22;67941;52.506;5.470;2023-03-01T12:28:01;5.10;66.70
78619;DHT22;67941;52.506;5.470;2023-03-01T12:30:43;5.10;66.50
78619;DHT22;67941;52.506;5.470;2023-03-01T12:33:26;5.20;66.40
78619;DHT22;67941;52.506;5.470;2023-03-01T12:36:18;5.20;66.30
78619;DHT22;67941;52.506;5.470;2023-03-01T12:38:59;5.30;66.20
78619;DHT22;67941;52.506;5.470;2023-03-01T12:41:48;5.30;66.20
78619;DHT22;67941;52.506;5.470;2023-03-01T12:44:46;5.30;66.10
78619;DHT22;67941;52.506;5.470;2023-03-01T12:47:42;5.30;66.00
78619;DHT22;67941;52.506;5.470;2023-03-01T12:50:18;5.30;66.00
78619;DHT22;67941;52.506;5.470;2023-03-01T12:52:53;5.30;65.90
78619;DHT22;67941;52.506;5.470;2023-03-01T12:55:28;5.30;65.90
78619;DHT22;67941;52.506;5.470;2023-03-01T12:58:05;5.40;65.80
78619;DHT22;67941;52.506;5.470;2023-03-01T13:00:40;5.40;65.80
78619;DHT22;67941;52.506;5.470;2023-03-01T13:03:22;5.50;65.60
78619;DHT22;67941;52.506;5.470;2023-03-01T13:06:04;5.50;65.50
78619;DHT22;67941;52.506;5.470;2023-03-01T13:08:42;5.50;65.40
78619;DHT22;67941;52.506;5.470;2023-03-01T13:11:17;5.60;65.40
78619;DHT22;67941;52.506;5.470;2023-03-01T13:13:47;5.60;65.30
78619;DHT22;67941;52.506;5.470;2023-03-01T13:16:38;5.60;65.10
78619;DHT22;67941;52.506;5.470;2023-03-01T13:19:13;5.70;65.10
78619;DHT22;67941;52.506;5.470;2023-03-01T13:21:44;5.70;65.10
78619;DHT22;67941;52.506;5.470;2023-03-01T13:24:33;5.70;65.00
78619;DHT22;67941;52.506;5.470;2023-03-01T13:29:50;5.80;65.00
78619;DHT22;67941;52.506;5.470;2023-03-01T13:32:20;5.80;65.10
78619;DHT22;67941;52.506;5.470;2023-03-01T13:34:54;5.80;65.00
78619;DHT22;67941;52.506;5.470;2023-03-01T13:37:41;5.80;65.00
78619;DHT22;67941;52.506;5.470;2023-03-01T13:43:29;5.80;65.00
78619;DHT22;67941;52.506;5.470;2023-03-01T13:45:58;5.90;64.80
78619;DHT22;67941;52.506;5.470;2023-03-01T13:48:29;5.90;64.80
78619;DHT22;67941;52.506;5.470;2023-03-01T13:51:01;5.90;64.70
78619;DHT22;67941;52.506;5.470;2023-03-01T13:53:33;5.90;64.60
78619;DHT22;67941;52.506;5.470;2023-03-01T13:56:07;6.00;64.60
78619;DHT22;67941;52.506;5.470;2023-03-01T13:58:49;6.00;64.60
78619;DHT22;67941;52.506;5.470;2023-03-01T14:01:27;6.00;64.60
78619;DHT22;67941;52.506;5.470;2023-03-01T14:03:57;6.10;64.50
78619;DHT22;67941;52.506;5.470;2023-03-01T14:06:28;6.10;64.50
78619;DHT22;67941;52.506;5.470;2023-03-01T14:09:04;6.10;64.20
78619;DHT22;67941;52.506;5.470;2023-03-01T14:11:59;6.10;64.10
78619;DHT22;67941;52.506;5.470;2023-03-01T14:14:46;6.20;64.10
78619;DHT22;67941;52.506;5.470;2023-03-01T14:17:30;6.20;64.10
78619;DHT22;67941;52.506;5.470;2023-03-01T14:20:07;6.20;64.20
78619;DHT22;67941;52.506;5.470;2023-03-01T14:22:37;6.20;64.20
78619;DHT22;67941;52.506;5.470;2023-03-01T14:25:20;6.20;64.20
78619;DHT22;67941;52.506;5.470;2023-03-01T14:28:02;6.30;64.00
78619;DHT22;67941;52.506;5.470;2023-03-01T14:30:38;6.30;63.90
78619;DHT22;67941;52.506;5.470;2023-03-01T14:33:21;6.30;63.80
78619;DHT22;67941;52.506;5.470;2023-03-01T14:35:58;6.30;63.70
78619;DHT22;67941;52.506;5.470;2023-03-01T14:38:32;6.40;63.70
78619;DHT22;67941;52.506;5.470;2023-03-01T14:41:05;6.40;63.60
78619;DHT22;67941;52.506;5.470;2023-03-01T14:43:35;6.40;63.50
78619;DHT22;67941;52.506;5.470;2023-03-01T14:46:17;6.40;63.50
78619;DHT22;67941;52.506;5.470;2023-03-01T14:48:49;6.50;63.40
78619;DHT22;67941;52.506;5.470;2023-03-01T14:51:18;6.50;63.30
78619;DHT22;67941;52.506;5.470;2023-03-01T14:53:47;6.50;63.30
78619;DHT22;67941;52.506;5.470;2023-03-01T14:56:17;6.50;63.20
78619;DHT22;67941;52.506;5.470;2023-03-01T14:58:51;6.50;63.20
78619;DHT22;67941;52.506;5.470;2023-03-01T15:01:23;6.50;63.10
78619;DHT22;67941;52.506;5.470;2023-03-01T15:03:52;6.50;63.10
78619;DHT22;67941;52.506;5.470;2023-03-01T15:06:22;6.50;63.20
78619;DHT22;67941;52.506;5.470;2023-03-01T15:08:53;6.40;63.00
78619;DHT22;67941;52.506;5.470;2023-03-01T15:11:27;6.40;63.00
78619;DHT22;67941;52.506;5.470;2023-03-01T15:13:56;6.40;63.00
78619;DHT22;67941;52.506;5.470;2023-03-01T15:16:29;6.40;62.90
78619;DHT22;67941;52.506;5.470;2023-03-01T15:19:01;6.40;63.00
78619;DHT22;67941;52.506;5.470;2023-03-01T15:21:32;6.40;62.90
78619;DHT22;67941;52.506;5.470;2023-03-01T15:24:05;6.40;62.90
78619;DHT22;67941;52.506;5.470;2023-03-01T15:26:49;6.40;62.80
78619;DHT22;67941;52.506;5.470;2023-03-01T15:29:22;6.40;62.80
78619;DHT22;67941;52.506;5.470;2023-03-01T15:32:00;6.40;62.80
78619;DHT22;67941;52.506;5.470;2023-03-01T15:34:33;6.40;62.70
78619;DHT22;67941;52.506;5.470;2023-03-01T15:37:03;6.40;62.60
78619;DHT22;67941;52.506;5.470;2023-03-01T15:39:37;6.40;62.50
78619;DHT22;67941;52.506;5.470;2023-03-01T15:42:10;6.40;62.30
78619;DHT22;67941;52.506;5.470;2023-03-01T15:44:40;6.40;62.20
78619;DHT22;67941;52.506;5.470;2023-03-01T15:47:27;6.40;62.20
78619;DHT22;67941;52.506;5.470;2023-03-01T15:49:58;6.40;62.20
78619;DHT22;67941;52.506;5.470;2023-03-01T15:52:29;6.40;62.20
78619;DHT22;67941;52.506;5.470;2023-03-01T15:55:10;6.40;62.10
78619;DHT22;67941;52.506;5.470;2023-03-01T15:57:42;6.40;62.10
78619;DHT22;67941;52.506;5.470;2023-03-01T16:00:13;6.40;62.20
78619;DHT22;67941;52.506;5.470;2023-03-01T16:02:46;6.30;62.20
78619;DHT22;67941;52.506;5.470;2023-03-01T16:05:18;6.30;62.20
78619;DHT22;67941;52.506;5.470;2023-03-01T16:07:49;6.30;62.20
78619;DHT22;67941;52.506;5.470;2023-03-01T16:10:18;6.30;62.20
78619;DHT22;67941;52.506;5.470;2023-03-01T16:12:47;6.30;62.10
78619;DHT22;67941;52.506;5.470;2023-03-01T16:15:20;6.30;62.10
78619;DHT22;67941;52.506;5.470;2023-03-01T16:17:51;6.30;62.10
78619;DHT22;67941;52.506;5.470;2023-03-01T16:20:24;6.20;62.00
78619;DHT22;67941;52.506;5.470;2023-03-01T16:22:53;6.20;61.90
78619;DHT22;67941;52.506;5.470;2023-03-01T16:25:23;6.20;61.90
78619;DHT22;67941;52.506;5.470;2023-03-01T16:27:52;6.20;61.90
78619;DHT22;67941;52.506;5.470;2023-03-01T16:30:22;6.20;61.90
78619;DHT22;67941;52.506;5.470;2023-03-01T16:32:54;6.20;61.90
78619;DHT22;67941;52.506;5.470;2023-03-01T16:35:24;6.10;61.90
78619;DHT22;67941;52.506;5.470;2023-03-01T16:37:53;6.10;62.00
78619;DHT22;67941;52.506;5.470;2023-03-01T16:40:23;6.00;62.00